Terminal Aerodrome Forecast
Issued by NWS Burlington, VT

Home | Current Version | Previous Version | Text Only | Print | Product List | Glossary On
Versions: 1 2 3 4 5 6 7 8 9 10 11 12 13 14 15 16 17 18 19
000
FTUS41 KBTV 272320
TAFBTV
TAF
KBTV 272320Z 2800/2824 34005KT P6SM VCSH OVC050
      TEMPO 2800/2803 3SM -SHSN BR
     FM280300 34006KT P6SM OVC050
     FM281200 35007G15KT P6SM OVC050
     FM281800 34010G20KT P6SM BKN150=

USA.gov is the U.S. government's official web portal to all federal, state and local government web resources and services.